createdAt,value
2018-09-24T00:01:25.075Z,0.63
2018-09-24T00:03:54.294Z,0.80
2018-09-24T00:06:23.425Z,0.72
2018-09-24T00:08:52.813Z,0.80
2018-09-24T00:11:22.226Z,1.07
2018-09-24T00:13:51.496Z,0.80
2018-09-24T00:16:20.716Z,0.80
2018-09-24T00:18:49.874Z,0.70
2018-09-24T00:21:19.023Z,0.90
2018-09-24T00:23:48.159Z,0.72
2018-09-24T00:26:17.580Z,0.80
2018-09-24T00:28:46.908Z,0.75
2018-09-24T00:31:16.217Z,0.90
2018-09-24T00:33:45.506Z,1.20
2018-09-24T00:36:14.678Z,0.80
2018-09-24T00:38:43.903Z,1.30
2018-09-24T00:41:13.073Z,0.80
2018-09-24T00:43:42.200Z,0.90
2018-09-24T00:46:11.366Z,1.20
2018-09-24T00:48:40.395Z,0.90
2018-09-24T00:51:09.655Z,0.80
2018-09-24T00:55:02.956Z,1.02
2018-09-24T00:57:32.156Z,1.00
2018-09-24T01:00:01.356Z,0.93
2018-09-24T01:02:30.416Z,1.27
2018-09-24T01:04:59.743Z,0.90
2018-09-24T01:07:28.915Z,0.70
2018-09-24T01:09:58.015Z,0.70
2018-09-24T01:12:27.304Z,0.98
2018-09-24T01:14:56.639Z,0.78
2018-09-24T01:17:26.067Z,1.30
2018-09-24T01:19:55.359Z,1.00
2018-09-24T01:22:24.636Z,1.10
2018-09-24T01:24:53.911Z,0.90
2018-09-24T01:27:23.235Z,0.97
2018-09-24T01:29:52.606Z,0.90
2018-09-24T01:32:21.948Z,0.80
2018-09-24T01:34:51.387Z,0.90
2018-09-24T01:37:20.587Z,1.00
2018-09-24T01:39:49.840Z,1.20
2018-09-24T01:42:18.983Z,0.90
2018-09-24T01:44:48.106Z,0.90
2018-09-24T01:47:18.368Z,1.40
2018-09-24T01:49:47.559Z,0.70
2018-09-24T01:52:16.900Z,0.70
2018-09-24T01:54:46.051Z,1.07
2018-09-24T01:57:16.811Z,1.98
2018-09-24T01:59:51.962Z,0.75
2018-09-24T02:02:21.370Z,0.80
2018-09-24T02:04:50.807Z,0.90
2018-09-24T02:07:20.330Z,0.90
2018-09-24T02:09:49.499Z,0.80
2018-09-24T02:12:18.722Z,1.80
2018-09-24T02:14:47.999Z,1.30
2018-09-24T02:17:20.057Z,0.80
2018-09-24T02:19:50.152Z,1.12
2018-09-24T02:22:25.067Z,1.20
2018-09-24T02:24:54.699Z,1.10
2018-09-24T02:27:23.815Z,0.80
2018-09-24T02:29:53.040Z,0.70
2018-09-24T02:32:22.376Z,1.12
2018-09-24T02:34:53.803Z,0.98
2018-09-24T02:37:23.186Z,1.20
2018-09-24T02:39:52.493Z,0.90
2018-09-24T02:42:21.662Z,0.90
2018-09-24T02:44:55.347Z,0.70
2018-09-24T02:47:24.915Z,0.80
2018-09-24T02:49:54.207Z,1.45
2018-09-24T02:52:23.459Z,0.70
2018-09-24T02:54:52.797Z,0.80
2018-09-24T02:57:21.848Z,0.90
2018-09-24T02:59:51.455Z,1.00
2018-09-24T03:02:20.690Z,0.90
2018-09-24T03:04:54.890Z,1.45
2018-09-24T03:07:24.562Z,1.10
2018-09-24T03:09:53.662Z,1.00
2018-09-24T03:12:22.787Z,0.80
2018-09-24T03:14:52.076Z,1.10
2018-09-24T03:17:21.482Z,1.00
2018-09-24T03:19:50.802Z,1.30
2018-09-24T03:22:21.604Z,0.90
2018-09-24T03:24:50.974Z,0.80
2018-09-24T03:27:20.491Z,0.93
2018-09-24T03:29:49.731Z,1.15
2018-09-24T03:32:19.150Z,1.00
2018-09-24T03:34:48.446Z,1.07
2018-09-24T03:37:17.635Z,1.00
2018-09-24T03:39:46.850Z,1.10
2018-09-24T03:42:16.029Z,0.80
2018-09-24T03:44:45.240Z,0.80
2018-09-24T03:47:14.509Z,1.05
2018-09-24T03:49:43.838Z,1.00
2018-09-24T03:52:13.120Z,1.50
2018-09-24T03:54:42.231Z,1.00
2018-09-24T03:57:11.443Z,1.62
2018-09-24T03:59:40.630Z,0.80
2018-09-24T04:02:09.806Z,0.90
2018-09-24T04:04:44.051Z,0.82
2018-09-24T04:07:18.460Z,0.80
2018-09-24T04:09:53.034Z,0.80
2018-09-24T04:12:27.247Z,2.53
2018-09-24T04:15:01.624Z,1.20
2018-09-24T04:17:36.003Z,1.55
2018-09-24T04:20:10.187Z,1.00
2018-09-24T04:22:44.324Z,2.58
2018-09-24T04:25:18.764Z,1.20
2018-09-24T04:27:53.111Z,1.17
2018-09-24T04:30:27.490Z,1.70
2018-09-24T04:33:01.742Z,1.25
2018-09-24T04:35:36.015Z,1.57
2018-09-24T04:38:12.329Z,1.02
2018-09-24T04:40:46.551Z,1.40
2018-09-24T04:43:20.844Z,1.82
2018-09-24T04:45:54.948Z,1.90
2018-09-24T04:48:29.231Z,1.40
2018-09-24T04:51:03.934Z,1.40
2018-09-24T04:53:38.227Z,1.90
2018-09-24T04:56:12.639Z,1.25
2018-09-24T04:58:47.104Z,1.90
2018-09-24T05:01:21.222Z,1.50
2018-09-24T05:03:55.667Z,2.58
2018-09-24T05:06:29.933Z,1.72
2018-09-24T05:09:04.194Z,1.85
2018-09-24T05:11:38.343Z,2.60
2018-09-24T05:14:12.576Z,2.50
2018-09-24T05:16:46.879Z,6.47
2018-09-24T05:19:21.507Z,2.33
2018-09-24T05:21:55.750Z,2.10
2018-09-24T05:24:30.324Z,1.80
2018-09-24T05:27:04.487Z,2.05
2018-09-24T05:29:38.809Z,2.25
2018-09-24T05:32:13.392Z,3.20
2018-09-24T05:34:47.663Z,1.60
2018-09-24T05:37:21.876Z,2.35
2018-09-24T05:40:01.192Z,1.98
2018-09-24T05:42:35.407Z,1.77
2018-09-24T05:45:09.925Z,3.20
2018-09-24T05:47:44.361Z,2.35
2018-09-24T05:50:18.808Z,2.83
2018-09-24T05:52:53.475Z,2.70
2018-09-24T05:55:27.846Z,1.72
2018-09-24T05:58:02.052Z,2.47
2018-09-24T06:00:36.499Z,2.22
2018-09-24T06:03:10.786Z,3.77
2018-09-24T06:05:45.098Z,3.70
2018-09-24T06:08:19.406Z,4.50
2018-09-24T06:10:53.695Z,2.55
2018-09-24T06:13:28.431Z,4.78
2018-09-24T06:16:02.680Z,2.70
2018-09-24T06:18:36.827Z,2.50
2018-09-24T06:21:11.191Z,4.03
2018-09-24T06:23:45.363Z,4.25
2018-09-24T06:26:19.518Z,2.75
2018-09-24T06:28:53.808Z,3.58
2018-09-24T06:31:28.306Z,3.25
2018-09-24T06:34:02.560Z,2.83
2018-09-24T06:36:36.715Z,2.83
2018-09-24T06:39:12.978Z,3.17
2018-09-24T06:41:47.130Z,2.72
2018-09-24T06:44:21.476Z,3.65
2018-09-24T06:46:55.618Z,3.15
2018-09-24T06:49:30.024Z,3.27
2018-09-24T06:52:04.320Z,4.72
2018-09-24T06:54:38.583Z,5.35
2018-09-24T06:57:13.104Z,4.13
2018-09-24T06:59:47.325Z,3.40
2018-09-24T07:02:21.632Z,3.35
2018-09-24T07:04:56.160Z,4.45
2018-09-24T07:07:34.942Z,3.70
2018-09-24T07:10:09.894Z,3.85
2018-09-24T07:12:44.222Z,3.62
2018-09-24T07:15:18.562Z,4.05
2018-09-24T07:17:52.810Z,5.03
2018-09-24T07:20:27.150Z,4.23
2018-09-24T07:23:01.525Z,2.75
2018-09-24T07:25:35.855Z,3.60
2018-09-24T07:28:10.205Z,4.62
2018-09-24T07:30:44.369Z,4.08
2018-09-24T07:33:18.762Z,3.75
2018-09-24T07:35:53.129Z,4.90
2018-09-24T07:38:27.092Z,4.92
2018-09-24T07:41:01.032Z,5.78
2018-09-24T07:43:35.173Z,4.00
2018-09-24T07:46:09.164Z,5.05
2018-09-24T07:48:43.456Z,3.90
2018-09-24T07:51:17.651Z,5.05
2018-09-24T07:53:51.967Z,6.17
2018-09-24T07:56:26.134Z,4.45
2018-09-24T07:59:00.292Z,4.33
2018-09-24T08:01:34.530Z,3.92
2018-09-24T08:04:08.960Z,5.12
2018-09-24T08:06:43.318Z,4.53
2018-09-24T08:09:18.569Z,5.03
2018-09-24T08:11:52.932Z,4.33
2018-09-24T08:14:27.114Z,9.50
2018-09-24T08:17:01.378Z,4.17
2018-09-24T08:19:35.648Z,4.25
2018-09-24T08:22:09.965Z,5.35
2018-09-24T08:24:44.149Z,3.95
2018-09-24T08:27:18.584Z,4.80
2018-09-24T08:29:52.956Z,5.40
2018-09-24T08:32:27.176Z,7.47
2018-09-24T08:35:01.567Z,5.28
2018-09-24T08:37:35.856Z,5.25
2018-09-24T08:40:10.095Z,4.20
2018-09-24T08:42:44.293Z,5.15
2018-09-24T08:45:18.604Z,4.92
2018-09-24T08:47:52.796Z,4.27
2018-09-24T08:50:27.287Z,5.78
2018-09-24T08:53:01.641Z,5.12
2018-09-24T08:55:35.864Z,4.12
2018-09-24T08:58:10.130Z,4.97
2018-09-24T09:00:44.507Z,3.22
2018-09-24T09:03:18.673Z,5.35
2018-09-24T09:05:53.056Z,5.00
2018-09-24T09:08:27.310Z,5.65
2018-09-24T09:11:01.588Z,4.30
2018-09-24T09:13:35.906Z,4.95
2018-09-24T09:16:10.239Z,4.12
2018-09-24T09:18:44.568Z,5.35
2018-09-24T09:21:18.727Z,6.37
2018-09-24T09:23:52.996Z,4.78
2018-09-24T09:26:27.279Z,6.00
2018-09-24T09:29:01.776Z,4.22
2018-09-24T09:31:36.115Z,4.62
2018-09-24T09:34:10.385Z,3.67
2018-09-24T09:36:44.741Z,5.72
2018-09-24T09:39:19.139Z,3.98
2018-09-24T09:41:53.252Z,3.58
2018-09-24T09:44:27.622Z,4.05
2018-09-24T09:47:01.902Z,4.10
2018-09-24T09:49:36.499Z,5.12
2018-09-24T09:52:10.839Z,4.87
2018-09-24T09:54:45.091Z,5.17
2018-09-24T09:57:19.347Z,3.42
2018-09-24T09:59:53.775Z,4.43
2018-09-24T10:02:28.231Z,4.12
2018-09-24T10:05:02.604Z,3.87
2018-09-24T10:07:36.886Z,4.37
2018-09-24T10:10:11.484Z,5.50
2018-09-24T10:12:45.692Z,3.45
2018-09-24T10:15:20.191Z,5.08
2018-09-24T10:17:54.356Z,3.25
2018-09-24T10:20:28.702Z,4.25
2018-09-24T10:23:02.886Z,3.02
2018-09-24T10:25:37.152Z,4.20
2018-09-24T10:28:11.419Z,4.78
2018-09-24T10:30:45.783Z,3.70
2018-09-24T10:33:20.020Z,4.62
2018-09-24T10:35:54.423Z,3.15
2018-09-24T10:38:28.907Z,3.55
2018-09-24T10:41:03.006Z,2.75
2018-09-24T10:43:37.293Z,3.72
2018-09-24T10:46:11.677Z,2.87
2018-09-24T10:48:46.056Z,4.40
2018-09-24T10:51:20.449Z,3.92
2018-09-24T10:53:55.071Z,4.72
2018-09-24T10:56:29.319Z,3.62
2018-09-24T10:59:03.630Z,4.60
2018-09-24T11:01:37.875Z,3.67
2018-09-24T11:04:12.275Z,4.37
2018-09-24T11:06:46.611Z,3.90
2018-09-24T11:09:20.991Z,2.80
2018-09-24T11:11:55.433Z,4.35
2018-09-24T11:14:29.728Z,2.83
2018-09-24T11:17:04.176Z,2.55
2018-09-24T11:19:38.108Z,3.77
2018-09-24T11:22:12.430Z,2.55
2018-09-24T11:24:46.704Z,3.22
2018-09-24T11:27:20.983Z,3.10
2018-09-24T11:29:55.400Z,2.70
2018-09-24T11:32:29.743Z,3.95
2018-09-24T11:35:04.126Z,5.13
2018-09-24T11:37:38.671Z,5.35
2018-09-24T11:40:13.134Z,3.35
2018-09-24T11:42:47.457Z,4.50
2018-09-24T11:45:21.842Z,3.95
2018-09-24T11:47:57.011Z,2.27
2018-09-24T11:50:31.371Z,3.47
2018-09-24T11:53:05.531Z,3.98
2018-09-24T11:55:39.802Z,3.73
2018-09-24T11:58:14.283Z,3.00
2018-09-24T12:00:48.488Z,3.20
2018-09-24T12:03:22.933Z,2.87
2018-09-24T12:05:57.108Z,2.98
2018-09-24T12:08:31.294Z,3.02
2018-09-24T12:11:05.570Z,4.00
2018-09-24T12:13:39.923Z,3.27
2018-09-24T12:16:14.154Z,7.08
2018-09-24T12:18:48.379Z,3.02
2018-09-24T12:21:22.604Z,3.72
2018-09-24T12:23:56.901Z,3.33
2018-09-24T12:26:31.107Z,3.30
2018-09-24T12:29:05.519Z,3.25
2018-09-24T12:31:40.263Z,4.25
2018-09-24T12:34:15.090Z,2.80
2018-09-24T12:36:49.416Z,2.02
2018-09-24T12:39:23.590Z,3.87
2018-09-24T12:41:57.831Z,2.90
2018-09-24T12:44:32.095Z,3.15
2018-09-24T12:47:06.286Z,3.27
2018-09-24T12:49:40.579Z,3.08
2018-09-24T12:52:14.838Z,2.72
2018-09-24T12:54:49.103Z,2.90
2018-09-24T12:57:23.472Z,3.95
2018-09-24T12:59:57.972Z,3.67
2018-09-24T13:02:32.301Z,3.17
2018-09-24T13:05:06.616Z,2.50
2018-09-24T13:07:40.913Z,3.22
2018-09-24T13:10:15.377Z,3.83
2018-09-24T13:12:49.824Z,3.37
2018-09-24T13:15:24.216Z,3.50
2018-09-24T13:17:58.515Z,3.05
2018-09-24T13:20:32.947Z,2.70
2018-09-24T13:23:07.087Z,2.70
2018-09-24T13:25:41.379Z,3.45
2018-09-24T13:28:15.614Z,3.45
2018-09-24T13:30:49.883Z,3.22
2018-09-24T13:33:24.095Z,4.08
2018-09-24T13:35:58.500Z,3.90
2018-09-24T13:38:32.985Z,4.83
2018-09-24T13:41:07.272Z,6.20
2018-09-24T13:43:41.620Z,4.08
2018-09-24T13:46:15.904Z,4.53
2018-09-24T13:48:50.274Z,6.58
2018-09-24T13:51:24.647Z,3.50
2018-09-24T13:53:58.990Z,3.90
2018-09-24T13:56:33.011Z,3.22
2018-09-24T13:59:07.409Z,3.90
2018-09-24T14:01:41.704Z,5.05
2018-09-24T14:04:15.941Z,3.67
2018-09-24T14:06:50.083Z,3.77
2018-09-24T14:09:24.439Z,3.80
2018-09-24T14:11:58.678Z,3.85
2018-09-24T14:14:32.816Z,3.10
2018-09-24T14:17:06.986Z,3.10
2018-09-24T14:19:41.231Z,2.70
2018-09-24T14:22:15.505Z,3.50
2018-09-24T14:24:49.894Z,2.75
2018-09-24T14:27:24.264Z,4.53
2018-09-24T14:29:58.666Z,3.50
2018-09-24T14:32:33.169Z,3.17
2018-09-24T14:35:07.567Z,3.40
2018-09-24T14:37:41.918Z,3.70
2018-09-24T14:40:16.159Z,2.98
2018-09-24T14:42:50.459Z,3.08
2018-09-24T14:45:24.795Z,2.40
2018-09-24T14:47:59.183Z,3.52
2018-09-24T14:50:33.561Z,4.78
2018-09-24T14:53:07.910Z,4.15
2018-09-24T14:55:42.350Z,3.50
2018-09-24T14:58:16.543Z,2.67
2018-09-24T15:00:50.971Z,2.93
2018-09-24T15:03:25.088Z,3.20
2018-09-24T15:05:59.451Z,4.47
2018-09-24T15:08:33.725Z,4.05
2018-09-24T15:11:07.939Z,3.55
2018-09-24T15:13:42.120Z,2.47
2018-09-24T15:16:16.466Z,2.87
2018-09-24T15:18:50.799Z,2.37
2018-09-24T15:21:25.200Z,2.60
2018-09-24T15:23:59.396Z,3.05
2018-09-24T15:26:33.780Z,2.47
2018-09-24T15:29:07.967Z,4.25
2018-09-24T15:31:42.352Z,3.17
2018-09-24T15:34:16.579Z,3.25
2018-09-24T15:36:51.123Z,2.80
2018-09-24T15:39:25.363Z,3.15
2018-09-24T15:41:59.774Z,4.27
2018-09-24T15:44:34.110Z,3.92
2018-09-24T15:47:08.379Z,3.77
2018-09-24T15:49:42.874Z,2.87
2018-09-24T15:52:17.315Z,2.70
2018-09-24T15:54:51.792Z,3.50
2018-09-24T15:57:25.975Z,4.12
2018-09-24T16:00:00.480Z,2.47
2018-09-24T16:02:34.902Z,3.65
2018-09-24T16:05:09.147Z,2.15
2018-09-24T16:07:43.968Z,2.87
2018-09-24T16:10:18.243Z,3.57
2018-09-24T16:12:52.743Z,3.10
2018-09-24T16:15:26.904Z,2.90
2018-09-24T16:18:01.123Z,3.15
2018-09-24T16:20:35.472Z,2.50
2018-09-24T16:23:09.812Z,2.80
2018-09-24T16:25:44.071Z,2.25
2018-09-24T16:28:18.415Z,2.37
2018-09-24T16:30:52.571Z,3.63
2018-09-24T16:33:27.090Z,3.72
2018-09-24T16:36:01.384Z,2.87
2018-09-24T16:38:35.683Z,4.00
2018-09-24T16:41:09.924Z,3.40
2018-09-24T16:43:44.085Z,2.53
2018-09-24T16:46:18.435Z,4.08
2018-09-24T16:48:52.869Z,4.08
2018-09-24T16:51:27.255Z,3.43
2018-09-24T16:54:01.518Z,3.02
2018-09-24T16:56:36.019Z,2.27
2018-09-24T16:59:10.255Z,5.10
2018-09-24T17:01:44.419Z,3.00
2018-09-24T17:04:18.695Z,4.30
2018-09-24T17:06:53.071Z,3.22
2018-09-24T17:09:42.614Z,3.98
2018-09-24T17:12:19.015Z,2.75
2018-09-24T17:14:53.242Z,3.33
2018-09-24T17:17:27.554Z,3.85
2018-09-24T17:20:01.833Z,4.30
2018-09-24T17:22:36.059Z,2.83
2018-09-24T17:25:10.465Z,3.58
2018-09-24T17:27:44.814Z,3.37
2018-09-24T17:30:18.950Z,3.33
2018-09-24T17:32:53.337Z,1.98
2018-09-24T17:35:27.594Z,3.22
2018-09-24T17:38:02.956Z,4.12
2018-09-24T17:40:45.108Z,2.87
2018-09-24T17:44:12.563Z,2.83
2018-09-24T17:46:57.396Z,3.37
2018-09-24T17:50:26.290Z,3.50
2018-09-24T17:53:00.654Z,1.98
2018-09-24T17:55:34.984Z,2.37
2018-09-24T17:58:09.191Z,2.72
2018-09-24T18:00:43.347Z,3.85
2018-09-24T18:03:17.353Z,2.75
2018-09-24T18:05:51.399Z,2.55
2018-09-24T18:08:25.450Z,3.30
2018-09-24T18:10:59.443Z,3.60
2018-09-24T18:13:33.400Z,2.87
2018-09-24T18:16:07.467Z,2.55
2018-09-24T18:18:42.228Z,3.77
2018-09-24T18:21:16.325Z,3.58
2018-09-24T18:23:50.938Z,2.33
2018-09-24T18:26:25.224Z,3.67
2018-09-24T18:29:00.385Z,5.03
2018-09-24T18:31:34.664Z,3.30
2018-09-24T18:34:08.640Z,3.37
2018-09-24T18:36:42.889Z,4.28
2018-09-24T18:39:17.845Z,3.25
2018-09-24T18:41:52.361Z,2.92
2018-09-24T18:44:27.024Z,3.30
2018-09-24T18:47:01.525Z,2.50
2018-09-24T18:49:36.059Z,3.05
2018-09-24T18:52:10.739Z,3.95
2018-09-24T18:54:45.387Z,2.60
2018-09-24T18:57:19.622Z,3.25
2018-09-24T18:59:53.512Z,2.90
2018-09-24T19:02:27.491Z,3.20
2018-09-24T19:05:01.408Z,3.45
2018-09-24T19:07:35.498Z,2.70
2018-09-24T19:10:09.894Z,3.45
2018-09-24T19:12:44.041Z,3.35
2018-09-24T19:15:18.088Z,3.87
2018-09-24T19:17:52.316Z,3.67
2018-09-24T19:20:26.206Z,3.05
2018-09-24T19:23:00.195Z,3.00
2018-09-24T19:25:34.236Z,4.30
2018-09-24T19:28:08.780Z,5.05
2018-09-24T19:30:43.123Z,3.02
2018-09-24T19:33:17.256Z,4.28
2018-09-24T19:35:51.483Z,5.03
2018-09-24T19:38:25.659Z,5.75
2018-09-24T19:40:59.804Z,6.20
2018-09-24T19:43:33.891Z,5.65
2018-09-24T19:46:08.235Z,4.50
2018-09-24T19:48:42.501Z,3.75
2018-09-24T19:51:17.368Z,3.58
2018-09-24T19:53:51.982Z,4.40
2018-09-24T19:56:26.871Z,5.30
2018-09-24T19:59:01.516Z,4.62
2018-09-24T20:01:35.944Z,4.12
2018-09-24T20:04:10.399Z,5.33
2018-09-24T20:06:44.584Z,3.98
2018-09-24T20:09:18.771Z,4.47
2018-09-24T20:11:52.718Z,4.50
2018-09-24T20:14:27.143Z,4.25
2018-09-24T20:17:01.599Z,4.60
2018-09-24T20:19:35.967Z,5.72
2018-09-24T20:22:12.109Z,4.85
2018-09-24T20:24:46.974Z,4.47
2018-09-24T20:27:21.663Z,5.47
2018-09-24T20:29:56.007Z,4.65
2018-09-24T20:32:30.355Z,4.42
2018-09-24T20:35:04.719Z,4.75
2018-09-24T20:37:39.119Z,4.67
2018-09-24T20:40:13.529Z,3.47
2018-09-24T20:42:47.864Z,3.63
2018-09-24T20:45:22.185Z,4.30
2018-09-24T20:47:56.444Z,4.85
2018-09-24T20:50:30.711Z,3.98
2018-09-24T20:53:04.870Z,5.08
2018-09-24T20:55:39.231Z,4.55
2018-09-24T20:58:13.526Z,5.08
2018-09-24T21:00:47.927Z,3.87
2018-09-24T21:03:22.283Z,4.87
2018-09-24T21:05:56.531Z,4.42
2018-09-24T21:08:30.728Z,4.55
2018-09-24T21:11:04.942Z,4.17
2018-09-24T21:13:39.127Z,4.78
2018-09-24T21:16:13.547Z,4.60
2018-09-24T21:18:48.046Z,3.58
2018-09-24T21:21:22.310Z,3.10
2018-09-24T21:23:56.462Z,4.33
2018-09-24T21:26:30.762Z,3.43
2018-09-24T21:29:05.024Z,2.77
2018-09-24T21:31:39.246Z,4.42
2018-09-24T21:34:13.532Z,3.77
2018-09-24T21:36:47.775Z,4.67
2018-09-24T21:39:22.092Z,4.20
2018-09-24T21:41:56.332Z,3.75
2018-09-24T21:44:30.627Z,3.60
2018-09-24T21:47:05.040Z,3.67
2018-09-24T21:49:39.510Z,3.80
2018-09-24T21:52:13.698Z,3.83
2018-09-24T21:54:48.212Z,3.65
2018-09-24T21:57:22.577Z,3.75
2018-09-24T21:59:56.751Z,4.33
2018-09-24T22:02:31.099Z,3.70
2018-09-24T22:05:05.253Z,4.30
2018-09-24T22:07:39.693Z,4.20
2018-09-24T22:10:14.174Z,2.98
2018-09-24T22:12:48.399Z,3.70
2018-09-24T22:15:22.758Z,3.62
2018-09-24T22:17:56.956Z,4.12
2018-09-24T22:20:31.998Z,3.30
2018-09-24T22:23:06.154Z,4.37
2018-09-24T22:25:40.274Z,2.87
2018-09-24T22:28:14.541Z,3.83
2018-09-24T22:30:48.947Z,4.17
2018-09-24T22:33:23.457Z,3.40
2018-09-24T22:35:57.796Z,2.95
2018-09-24T22:38:31.983Z,3.55
2018-09-24T22:41:06.258Z,4.63
2018-09-24T22:43:40.448Z,3.50
2018-09-24T22:46:14.859Z,4.10
2018-09-24T22:48:49.092Z,3.85
2018-09-24T22:51:23.483Z,3.87
2018-09-24T22:53:57.870Z,3.20
2018-09-24T22:56:32.221Z,3.70
2018-09-24T22:59:06.631Z,3.52
2018-09-24T23:01:40.990Z,4.80
2018-09-24T23:04:15.390Z,4.60
2018-09-24T23:06:49.566Z,3.80
2018-09-24T23:09:23.767Z,3.87
2018-09-24T23:11:57.988Z,3.80
2018-09-24T23:14:32.327Z,3.25
2018-09-24T23:17:06.542Z,3.22
2018-09-24T23:19:40.999Z,3.22
2018-09-24T23:22:15.296Z,5.45
2018-09-24T23:24:49.719Z,3.80
2018-09-24T23:27:23.955Z,3.10
2018-09-24T23:29:58.347Z,3.90
2018-09-24T23:32:32.828Z,3.92
2018-09-24T23:35:07.126Z,3.00
2018-09-24T23:37:41.342Z,3.52
2018-09-24T23:40:15.606Z,2.90
2018-09-24T23:42:49.839Z,3.65
2018-09-24T23:45:24.210Z,3.20
2018-09-24T23:47:58.427Z,2.65
2018-09-24T23:50:32.775Z,3.08
2018-09-24T23:53:06.971Z,3.17
2018-09-24T23:55:41.268Z,3.65
2018-09-24T23:58:15.411Z,3.37
